Time;durP1;ratioP1;P1;durP2;ratioP2;P2;SDS_P1;SDS_P2;PMS_P1;PMS_P2;Temp;Humidity;BMP_temperature;BMP_pressure;BME280_temperature;BME280_humidity;BME280_pressure;Samples;Min_cycle;Max_cycle;Signal;HPM_P1;HPM_P2
2023/09/18 00:00:56;;;;;;;4.70;4.20;;;;;;;16.19;84.23;96945.13;111785;1244;24245;-73
2023/09/18 00:03:42;;;;;;;5.90;4.90;;;;;;;16.21;84.22;96939.57;111711;1244;22516;-72
2023/09/18 00:06:11;;;;;;;6.20;5.00;;;;;;;16.22;84.22;96935.16;111712;1244;22533;-73
2023/09/18 00:08:40;;;;;;;6.30;5.40;;;;;;;16.26;84.35;96929.60;111695;1244;22536;-73
2023/09/18 00:11:09;;;;;;;5.70;4.80;;;;;;;16.28;84.29;96924.29;111744;1244;22502;-73
2023/09/18 00:13:38;;;;;;;5.20;4.30;;;;;;;16.29;84.40;96922.29;111797;1244;22532;-73
2023/09/18 00:16:06;;;;;;;6.80;5.00;;;;;;;16.26;84.21;96921.77;111553;1244;22473;-73
2023/09/18 00:18:35;;;;;;;6.60;4.80;;;;;;;16.27;84.33;96921.21;111774;1237;22535;-73
2023/09/18 00:21:06;;;;;;;5.50;4.90;;;;;;;16.27;84.34;96918.00;111799;1244;22596;-73
2023/09/18 00:23:35;;;;;;;5.70;4.60;;;;;;;16.26;84.33;96916.32;111821;1244;22512;-73
2023/09/18 00:26:03;;;;;;;5.70;5.10;;;;;;;16.26;84.46;96918.84;111781;1244;22492;-73
2023/09/18 00:28:32;;;;;;;7.90;5.20;;;;;;;16.23;84.42;96918.59;111769;1244;22484;-73
2023/09/18 00:31:00;;;;;;;6.40;5.10;;;;;;;16.20;84.38;96918.50;111777;1244;25388;-73
2023/09/18 00:33:29;;;;;;;5.60;5.00;;;;;;;16.15;84.32;96919.44;111798;1244;22503;-73
2023/09/18 00:35:58;;;;;;;5.70;4.90;;;;;;;16.11;84.47;96919.27;111834;1244;22521;-73
2023/09/18 00:38:26;;;;;;;5.80;5.00;;;;;;;16.10;84.57;96914.64;111792;1244;22522;-73
2023/09/18 00:40:54;;;;;;;7.60;4.80;;;;;;;16.08;84.53;96909.15;111820;1244;22512;-73
2023/09/18 00:43:23;;;;;;;5.90;4.60;;;;;;;16.06;84.59;96910.05;111799;1244;22521;-73
2023/09/18 00:45:54;;;;;;;6.50;5.00;;;;;;;16.01;84.57;96909.19;111809;1244;22550;-73
2023/09/18 00:48:25;;;;;;;6.00;4.90;;;;;;;15.96;84.70;96907.75;111767;1244;22509;-73
2023/09/18 00:50:57;;;;;;;6.90;5.10;;;;;;;15.95;84.82;96907.99;111799;1244;22527;-73
2023/09/18 00:53:27;;;;;;;7.40;5.10;;;;;;;15.96;85.00;96907.19;111799;1240;22566;-73
2023/09/18 00:55:55;;;;;;;;;;;;;;;15.98;85.08;96910.75;111798;1244;23420;-73
2023/09/18 00:58:25;;;;;;;5.60;5.00;;;;;;;15.97;85.04;96906.83;111776;1244;24881;-73
2023/09/18 01:00:53;;;;;;;5.90;5.10;;;;;;;15.95;84.93;96909.61;111746;1244;22509;-73
2023/09/18 01:03:22;;;;;;;6.40;5.20;;;;;;;15.96;85.10;96907.06;111826;1244;22484;-73
2023/09/18 01:05:53;;;;;;;6.20;5.40;;;;;;;15.97;85.17;96906.18;111766;1244;22510;-73
2023/09/18 01:08:24;;;;;;;5.40;4.80;;;;;;;15.99;85.29;96909.18;111792;1244;22502;-73
2023/09/18 01:11:01;;;;;;;5.30;4.80;;;;;;;16.01;85.35;96912.65;111793;1244;25335;-73
2023/09/18 01:13:36;;;;;;;6.10;5.20;;;;;;;16.00;85.42;96911.08;111785;1244;22565;-74
2023/09/18 01:16:14;;;;;;;6.60;5.30;;;;;;;15.99;85.41;96908.90;111789;1244;24359;-73
2023/09/18 01:18:50;;;;;;;7.20;5.00;;;;;;;15.95;85.57;96912.13;111757;1244;22536;-73
2023/09/18 01:21:21;;;;;;;5.60;4.90;;;;;;;15.97;85.71;96915.02;111785;1244;22513;-73
2023/09/18 01:23:51;;;;;;;6.30;5.20;;;;;;;16.00;85.86;96912.30;111814;1244;22506;-73
2023/09/18 01:26:20;;;;;;;6.20;5.20;;;;;;;16.03;85.84;96912.75;111792;1244;22526;-74
2023/09/18 01:28:48;;;;;;;6.60;5.40;;;;;;;16.05;85.72;96911.40;111742;1244;22595;-74
2023/09/18 01:31:17;;;;;;;6.70;5.60;;;;;;;16.08;85.71;96907.27;111772;1244;22987;-73
2023/09/18 01:33:47;;;;;;;6.30;5.70;;;;;;;16.13;85.77;96904.67;111793;1244;22505;-73
2023/09/18 01:36:19;;;;;;;5.50;4.90;;;;;;;16.18;85.65;96907.65;111804;1244;24192;-73
2023/09/18 01:38:49;;;;;;;6.20;5.00;;;;;;;16.16;85.48;96912.02;111785;1244;22543;-73
2023/09/18 01:41:17;;;;;;;6.70;5.20;;;;;;;16.17;85.56;96913.87;111802;1244;22525;-73
2023/09/18 01:43:46;;;;;;;6.10;5.20;;;;;;;16.18;85.47;96911.61;111781;1244;22601;-73
2023/09/18 01:46:15;;;;;;;7.90;5.70;;;;;;;16.15;85.40;96907.82;111803;1244;22595;-73
2023/09/18 01:48:47;;;;;;;8.20;5.80;;;;;;;16.12;85.38;96907.37;111815;1244;23563;-73
2023/09/18 01:51:18;;;;;;;6.60;5.90;;;;;;;16.09;85.44;96905.10;111802;1244;24348;-73
2023/09/18 01:53:46;;;;;;;6.40;5.40;;;;;;;16.10;85.54;96904.60;111813;1244;22486;-73
2023/09/18 01:56:15;;;;;;;6.30;5.30;;;;;;;16.11;85.57;96899.66;111794;1244;22511;-73
2023/09/18 01:58:44;;;;;;;5.90;5.20;;;;;;;16.14;85.58;96901.87;111803;1244;22500;-73
2023/09/18 02:01:12;;;;;;;6.70;5.40;;;;;;;16.22;85.76;96904.60;111776;1244;22972;-73
2023/09/18 02:03:41;;;;;;;8.00;6.30;;;;;;;16.28;85.57;96902.98;111757;1243;22550;-73
2023/09/18 02:06:12;;;;;;;8.60;5.80;;;;;;;16.31;85.47;96902.33;111785;1244;22523;-73
2023/09/18 02:08:41;;;;;;;6.60;5.50;;;;;;;16.32;85.38;96900.27;111753;1243;22590;-73
2023/09/18 02:11:09;;;;;;;7.70;5.90;;;;;;;16.35;85.39;96898.21;111777;1244;22464;-73
2023/09/18 02:13:37;;;;;;;8.60;5.90;;;;;;;16.40;85.25;96891.23;111796;1244;25280;-73
2023/09/18 02:16:05;;;;;;;5.90;5.30;;;;;;;16.38;85.01;96892.91;111775;1244;22508;-73
2023/09/18 02:18:34;;;;;;;6.20;5.60;;;;;;;16.31;84.97;96897.71;111820;1243;27530;-73
2023/09/18 02:21:02;;;;;;;7.30;5.90;;;;;;;16.32;85.11;96900.90;111761;1244;22499;-73
2023/09/18 02:23:30;;;;;;;6.40;5.40;;;;;;;16.36;84.98;96900.08;111803;1244;22534;-73
2023/09/18 02:25:59;;;;;;;7.10;5.80;;;;;;;16.33;84.92;96897.58;111773;1244;22507;-73
2023/09/18 02:28:27;;;;;;;7.80;6.60;;;;;;;16.29;84.88;96895.63;111683;1244;57332;-73
2023/09/18 02:30:56;;;;;;;7.00;6.20;;;;;;;16.25;84.93;96893.06;111741;1244;22505;-73
2023/09/18 02:33:24;;;;;;;7.50;6.80;;;;;;;16.23;84.99;96899.83;111589;1244;22566;-73
2023/09/18 02:35:52;;;;;;;7.30;6.50;;;;;;;16.23;85.24;96900.23;111761;1244;23347;-73
2023/09/18 02:38:21;;;;;;;7.50;6.70;;;;;;;16.22;85.12;96907.38;111750;1243;22486;-73
2023/09/18 02:40:53;;;;;;;8.50;6.90;;;;;;;16.20;85.20;96905.31;111753;1243;22514;-73
2023/09/18 02:43:25;;;;;;;6.90;6.20;;;;;;;16.18;85.23;96906.41;111785;1244;22531;-74
2023/09/18 02:45:53;;;;;;;9.70;6.20;;;;;;;16.13;85.21;96903.70;111772;1244;22505;-73
2023/09/18 02:48:21;;;;;;;7.10;6.30;;;;;;;16.07;85.24;96905.46;111750;1244;23172;-73
2023/09/18 02:50:50;;;;;;;8.60;6.40;;;;;;;15.98;85.21;96908.45;111737;1244;22552;-73
2023/09/18 02:53:21;;;;;;;6.70;6.00;;;;;;;15.88;85.26;96905.96;111749;1243;22492;-73
2023/09/18 02:55:52;;;;;;;10.00;7.30;;;;;;;15.78;85.39;96905.58;111800;1244;23523;-73
2023/09/18 02:58:25;;;;;;;9.50;6.60;;;;;;;15.71;85.70;96904.19;111738;1244;22553;-73
2023/09/18 03:00:59;;;;;;;7.00;6.20;;;;;;;15.66;85.84;96904.16;111741;1244;22502;-73
2023/09/18 03:03:27;;;;;;;9.10;7.00;;;;;;;15.62;85.99;96904.73;111736;1244;24137;-73
2023/09/18 03:06:02;;;;;;;8.10;6.90;;;;;;;15.58;86.28;96907.58;111744;1244;22513;-73
2023/09/18 03:08:31;;;;;;;7.60;6.70;;;;;;;15.56;86.52;96905.27;111740;1244;25260;-73
2023/09/18 03:10:59;;;;;;;7.70;6.80;;;;;;;15.55;86.64;96903.73;111684;1244;22494;-73
2023/09/18 03:13:29;;;;;;;7.90;7.10;;;;;;;15.57;86.84;96906.90;111757;1244;23257;-73
2023/09/18 03:15:58;;;;;;;9.20;8.20;;;;;;;15.59;87.04;96902.64;111745;1244;22529;-73
2023/09/18 03:18:26;;;;;;;9.20;8.20;;;;;;;15.58;87.15;96901.31;111707;1244;22472;-73
2023/09/18 03:20:57;;;;;;;10.20;8.00;;;;;;;15.58;87.32;96900.46;111738;1244;22531;-73
2023/09/18 03:23:27;;;;;;;10.30;8.90;;;;;;;15.59;87.38;96898.62;111717;1244;22501;-73
2023/09/18 03:25:55;;;;;;;10.00;9.00;;;;;;;15.66;87.61;96897.52;111743;1244;22525;-73
2023/09/18 03:28:25;;;;;;;10.90;9.80;;;;;;;15.72;87.53;96890.98;111708;1244;23225;-72
2023/09/18 03:30:54;;;;;;;10.70;9.60;;;;;;;15.82;87.81;96890.98;111778;1244;23700;-72
2023/09/18 03:33:25;;;;;;;11.80;8.50;;;;;;;15.90;87.55;96890.95;111755;1244;23694;-73
2023/09/18 03:35:58;;;;;;;11.40;8.80;;;;;;;15.93;87.44;96890.16;111768;1244;22825;-73
2023/09/18 03:38:26;;;;;;;10.00;8.70;;;;;;;15.95;87.40;96887.95;111702;1244;23369;-73
2023/09/18 03:40:54;;;;;;;9.60;8.60;;;;;;;15.95;87.33;96885.48;111731;1244;22975;-73
2023/09/18 03:43:25;;;;;;;9.80;8.80;;;;;;;15.95;87.11;96879.48;111754;1244;23843;-73
2023/09/18 03:46:03;;;;;;;9.60;8.60;;;;;;;16.00;87.30;96877.88;111731;1244;22503;-72
2023/09/18 03:48:37;;;;;;;9.90;8.90;;;;;;;16.04;87.22;96875.96;111684;1244;22616;-73
2023/09/18 03:51:06;;;;;;;10.70;9.20;;;;;;;16.04;87.13;96876.05;111738;1244;24223;-72
2023/09/18 03:53:35;;;;;;;10.90;9.70;;;;;;;16.06;87.16;96872.61;111642;1244;23867;-72
2023/09/18 03:56:05;;;;;;;9.70;8.70;;;;;;;16.06;87.14;96870.47;111731;1244;22610;-72
2023/09/18 03:58:33;;;;;;;10.10;9.10;;;;;;;16.06;87.11;96871.91;111709;1244;24319;-73
2023/09/18 04:01:02;;;;;;;9.40;8.50;;;;;;;16.00;86.94;96872.03;111723;1232;22536;-72
2023/09/18 04:03:30;;;;;;;9.40;8.40;;;;;;;15.94;86.86;96872.10;111739;1244;22534;-72
2023/09/18 04:05:58;;;;;;;10.90;9.40;;;;;;;15.87;86.97;96871.45;111762;1244;22492;-72
2023/09/18 04:08:27;;;;;;;10.20;9.00;;;;;;;15.87;87.09;96867.70;111711;1244;22512;-73
2023/09/18 04:10:58;;;;;;;9.80;8.80;;;;;;;15.88;87.18;96865.60;111750;1244;22506;-72
2023/09/18 04:13:26;;;;;;;9.10;8.30;;;;;;;15.86;87.13;96863.77;111733;1244;25261;-72
2023/09/18 04:16:00;;;;;;;10.50;9.40;;;;;;;15.86;87.12;96863.58;111744;1244;22509;-73
2023/09/18 04:18:29;;;;;;;9.40;8.40;;;;;;;15.85;87.19;96862.25;111742;1244;22505;-73
2023/09/18 04:20:57;;;;;;;9.60;8.70;;;;;;;15.85;87.16;96853.82;111761;1244;22818;-73
2023/09/18 04:23:27;;;;;;;9.20;8.30;;;;;;;15.86;87.19;96853.95;111750;1244;25315;-73
2023/09/18 04:25:58;;;;;;;10.10;8.20;;;;;;;15.88;87.12;96849.94;111773;1244;24027;-73
2023/09/18 04:28:26;;;;;;;9.40;8.10;;;;;;;15.92;87.07;96849.70;111754;1244;22570;-73
2023/09/18 04:30:57;;;;;;;9.20;8.20;;;;;;;15.92;86.90;96846.17;111753;1244;22515;-73
2023/09/18 04:33:28;;;;;;;10.10;8.30;;;;;;;15.91;86.94;96849.13;111776;1244;22527;-73
2023/09/18 04:35:56;;;;;;;10.00;8.80;;;;;;;15.89;86.99;96851.61;111790;1244;22500;-73
2023/09/18 04:38:24;;;;;;;9.10;8.20;;;;;;;15.88;86.93;96852.29;111708;1244;22516;-73
2023/09/18 04:41:00;;;;;;;9.50;8.50;;;;;;;15.89;87.14;96848.77;111746;1244;25488;-73
2023/09/18 04:43:29;;;;;;;11.00;9.20;;;;;;;15.93;87.17;96846.30;111736;1230;22518;-73
2023/09/18 04:45:58;;;;;;;9.90;8.90;;;;;;;16.10;87.54;96841.35;111804;1244;22521;-72
2023/09/18 04:48:29;;;;;;;9.10;8.30;;;;;;;16.36;87.43;96839.69;111679;1244;26769;-72
2023/09/18 04:50:58;;;;;;;11.00;8.50;;;;;;;16.64;87.15;96844.70;111765;1244;25244;-73
2023/09/18 04:53:28;;;;;;;10.00;9.00;;;;;;;16.85;86.79;96843.98;111764;1244;23209;-73
2023/09/18 04:55:57;;;;;;;9.30;8.30;;;;;;;17.08;86.66;96848.68;111778;1244;23792;-73
2023/09/18 04:58:25;;;;;;;8.60;7.80;;;;;;;17.31;86.28;96851.21;111749;1244;22547;-73
2023/09/18 05:00:56;;;;;;;9.60;8.60;;;;;;;17.49;85.62;96852.04;111748;1244;22528;-73
2023/09/18 05:03:29;;;;;;;9.10;8.20;;;;;;;17.60;85.03;96846.29;111721;1244;22543;-73
2023/09/18 05:05:57;;;;;;;8.80;7.80;;;;;;;17.71;84.91;96848.69;111747;1244;24253;-73
2023/09/18 05:08:25;;;;;;;8.90;8.00;;;;;;;17.90;84.67;96849.89;111695;1244;25461;-72
2023/09/18 05:10:54;;;;;;;9.90;7.80;;;;;;;18.13;84.52;96843.05;111752;1244;22519;-73
2023/09/18 05:13:22;;;;;;;10.50;8.20;;;;;;;18.37;83.98;96841.73;111781;1244;22505;-72
2023/09/18 05:15:55;;;;;;;8.40;7.30;;;;;;;18.60;83.38;96833.40;111784;1244;22501;-72
2023/09/18 05:18:25;;;;;;;7.40;6.70;;;;;;;18.78;82.95;96832.00;111724;1244;22504;-73
2023/09/18 05:20:54;;;;;;;10.30;7.80;;;;;;;18.98;82.52;96829.91;111642;1244;22563;-72
2023/09/18 05:23:23;;;;;;;8.20;7.40;;;;;;;19.10;81.46;96827.14;111747;1244;22528;-72
2023/09/18 05:25:51;;;;;;;8.10;7.30;;;;;;;19.17;81.21;96826.16;111745;1244;22507;-72
2023/09/18 05:28:32;;;;;;;8.00;7.20;;;;;;;19.24;80.72;96825.73;111750;1244;22488;-72
2023/09/18 05:31:01;;;;;;;8.40;7.40;;;;;;;19.40;80.31;96821.15;111762;1244;22570;-72
2023/09/18 05:33:30;;;;;;;7.70;6.90;;;;;;;19.55;79.74;96818.10;111734;1244;22858;-72
2023/09/18 05:35:58;;;;;;;7.70;7.00;;;;;;;19.69;78.89;96819.36;111715;1244;23407;-72
2023/09/18 05:38:27;;;;;;;7.90;7.10;;;;;;;19.83;78.61;96819.03;111707;1244;22466;-72
2023/09/18 05:40:55;;;;;;;7.40;6.70;;;;;;;20.07;78.64;96816.97;111733;1244;24166;-72
2023/09/18 05:43:23;;;;;;;7.50;6.50;;;;;;;20.40;78.31;96812.04;111714;1244;22506;-72
2023/09/18 05:45:52;;;;;;;6.60;5.90;;;;;;;20.81;77.81;96810.18;111732;1244;22524;-72
2023/09/18 05:48:21;;;;;;;6.50;5.80;;;;;;;21.15;76.70;96808.88;111761;1244;22515;-73
2023/09/18 05:50:50;;;;;;;8.60;6.20;;;;;;;21.35;76.00;96808.87;111734;1244;22697;-72
2023/09/18 05:53:18;;;;;;;6.80;5.50;;;;;;;21.59;75.85;96810.05;111734;1244;22516;-72
2023/09/18 05:55:49;;;;;;;6.50;5.90;;;;;;;21.78;74.87;96808.08;111725;1244;22509;-73
2023/09/18 05:58:22;;;;;;;6.50;5.60;;;;;;;21.82;74.03;96805.20;111663;1244;24191;-73
2023/09/18 06:00:50;;;;;;;6.60;5.70;;;;;;;21.87;73.36;96799.00;111723;1244;22507;-73
2023/09/18 06:03:20;;;;;;;6.80;6.00;;;;;;;21.97;73.06;96798.71;111754;1244;22507;-73
2023/09/18 06:05:53;;;;;;;6.80;5.80;;;;;;;21.98;72.11;96797.19;111781;1244;22507;-73
2023/09/18 06:08:22;;;;;;;8.00;5.80;;;;;;;21.97;71.77;96795.39;111753;1244;24028;-73
2023/09/18 06:10:51;;;;;;;6.20;5.50;;;;;;;22.11;71.66;96798.85;111725;1244;24143;-73
2023/09/18 06:13:19;;;;;;;7.20;5.90;;;;;;;22.34;71.35;96803.66;111716;1244;22522;-73
2023/09/18 06:15:49;;;;;;;6.30;5.70;;;;;;;22.54;70.76;96798.05;111748;1244;22500;-73
2023/09/18 06:18:19;;;;;;;5.70;5.20;;;;;;;22.84;70.33;96794.73;111736;1244;23849;-73
2023/09/18 06:20:47;;;;;;;6.50;5.90;;;;;;;23.16;69.90;96794.34;111776;1244;22528;-73
2023/09/18 06:23:15;;;;;;;6.80;6.10;;;;;;;23.43;69.37;96792.02;111733;1244;22565;-74
2023/09/18 06:25:44;;;;;;;6.80;6.20;;;;;;;23.74;68.91;96793.71;111728;1244;22518;-73
2023/09/18 06:28:12;;;;;;;6.90;5.80;;;;;;;23.98;68.58;96786.55;111743;1244;22607;-73
2023/09/18 06:30:41;;;;;;;6.10;5.50;;;;;;;24.22;68.29;96783.02;111710;1244;22506;-73
2023/09/18 06:33:12;;;;;;;6.90;5.90;;;;;;;24.38;67.46;96782.36;111677;1244;22495;-74
2023/09/18 06:35:41;;;;;;;8.40;6.20;;;;;;;24.32;66.56;96780.79;111764;1244;22508;-73
2023/09/18 06:38:12;;;;;;;7.00;6.00;;;;;;;24.22;65.83;96780.70;111738;1244;24482;-73
2023/09/18 06:40:40;;;;;;;7.00;6.30;;;;;;;23.97;65.22;96778.27;111733;1244;22631;-73
2023/09/18 06:43:09;;;;;;;7.20;6.10;;;;;;;23.76;65.11;96779.84;111753;1244;22521;-74
2023/09/18 06:45:41;;;;;;;6.80;6.20;;;;;;;23.60;65.07;96779.67;111731;1244;22513;-73
2023/09/18 06:48:10;;;;;;;7.00;6.30;;;;;;;23.47;65.07;96776.84;111713;1244;22506;-73
2023/09/18 06:50:39;;;;;;;6.30;5.70;;;;;;;23.27;64.94;96777.00;111694;1244;22614;-73
2023/09/18 06:53:09;;;;;;;6.60;6.00;;;;;;;23.21;65.45;96774.95;111744;1244;22986;-73
2023/09/18 06:55:37;;;;;;;;;;;;;;;23.14;65.18;96772.90;111767;1244;23764;-73
2023/09/18 06:58:05;;;;;;;7.10;6.30;;;;;;;23.18;65.49;96771.25;111745;1244;23164;-73
2023/09/18 07:00:33;;;;;;;6.60;6.00;;;;;;;23.22;65.34;96769.88;111707;1244;22580;-73
2023/09/18 07:03:02;;;;;;;7.30;6.60;;;;;;;23.31;65.09;96767.89;111709;1244;25391;-74
2023/09/18 07:05:33;;;;;;;6.80;6.20;;;;;;;23.35;64.74;96769.73;111613;1244;22511;-74
2023/09/18 07:08:05;;;;;;;6.90;6.20;;;;;;;23.41;64.75;96771.50;111700;1244;22529;-74
2023/09/18 07:10:33;;;;;;;8.20;6.20;;;;;;;23.47;64.72;96773.77;111645;1244;25390;-73
2023/09/18 07:13:02;;;;;;;8.00;6.20;;;;;;;23.53;64.82;96775.83;111638;1244;22519;-74
2023/09/18 07:15:32;;;;;;;6.60;6.00;;;;;;;23.54;64.41;96777.02;111728;1244;22618;-73
2023/09/18 07:18:00;;;;;;;6.70;5.90;;;;;;;23.60;64.31;96772.64;111662;1244;25816;-73
2023/09/18 07:20:28;;;;;;;7.50;6.20;;;;;;;23.70;64.35;96769.67;111612;1244;23809;-74
2023/09/18 07:22:57;;;;;;;6.60;6.00;;;;;;;23.83;64.26;96769.21;111732;1244;22499;-74
2023/09/18 07:25:25;;;;;;;;;;;;;;;23.96;64.15;96762.15;111779;1244;22496;-74
2023/09/18 07:27:56;;;;;;;6.50;5.70;;;;;;;24.11;63.99;96764.80;111624;1244;25378;-74
2023/09/18 07:30:28;;;;;;;7.10;5.80;;;;;;;24.35;64.38;96763.20;111524;1244;23380;-74
2023/09/18 07:32:57;;;;;;;6.70;6.00;;;;;;;24.66;64.49;96758.85;111494;1244;22503;-74
2023/09/18 07:35:27;;;;;;;6.90;6.20;;;;;;;24.79;63.80;96759.45;111685;1244;22621;-74
2023/09/18 07:37:57;;;;;;;6.90;6.30;;;;;;;24.83;63.86;96751.89;111560;1244;193005;-74
2023/09/18 07:40:26;;;;;;;6.80;6.10;;;;;;;25.03;63.61;96751.25;111738;1244;22526;-74
2023/09/18 07:42:56;;;;;;;6.50;5.90;;;;;;;25.11;62.90;96749.79;111740;1238;22509;-74
2023/09/18 07:45:25;;;;;;;7.00;6.40;;;;;;;25.06;62.87;96750.50;111701;1244;22696;-74
2023/09/18 07:47:53;;;;;;;7.40;6.40;;;;;;;25.21;62.54;96746.51;111699;1244;25263;-74
2023/09/18 07:50:22;;;;;;;6.80;6.20;;;;;;;25.21;62.09;96752.25;111708;1244;23782;-74
2023/09/18 07:52:51;;;;;;;7.10;6.40;;;;;;;25.26;62.02;96750.05;111752;1244;24409;-74
2023/09/18 07:55:20;;;;;;;7.10;6.30;;;;;;;25.35;61.89;96749.77;111743;1244;22511;-74
2023/09/18 07:57:51;;;;;;;8.10;6.70;;;;;;;25.41;61.64;96752.77;111701;1244;24194;-76
2023/09/18 08:00:22;;;;;;;6.70;6.00;;;;;;;25.40;61.43;96754.48;111642;1244;22510;-75
2023/09/18 08:02:58;;;;;;;7.40;6.50;;;;;;;25.35;60.99;96753.42;111735;1244;25342;-75
2023/09/18 08:05:30;;;;;;;7.60;6.80;;;;;;;25.33;60.92;96751.53;111737;1244;22503;-75
2023/09/18 08:08:00;;;;;;;7.10;6.30;;;;;;;25.38;61.13;96750.81;111749;1244;22506;-75
2023/09/18 08:10:28;;;;;;;7.50;6.70;;;;;;;25.51;61.60;96753.81;111746;1244;22982;-75
2023/09/18 08:12:57;;;;;;;7.30;6.60;;;;;;;25.70;61.26;96752.63;111710;1244;22541;-75
2023/09/18 08:15:25;;;;;;;7.60;6.90;;;;;;;25.82;60.53;96750.90;111725;1244;22505;-75
2023/09/18 08:17:54;;;;;;;8.20;7.40;;;;;;;25.87;60.41;96748.55;111697;1244;22519;-75
2023/09/18 08:20:23;;;;;;;8.20;7.40;;;;;;;25.99;60.77;96749.83;111719;1244;24036;-75
2023/09/18 08:22:51;;;;;;;8.00;7.30;;;;;;;26.20;60.51;96747.65;111700;1244;25335;-75
2023/09/18 08:25:20;;;;;;;7.90;7.10;;;;;;;26.40;60.58;96745.35;111720;1244;22657;-75
2023/09/18 08:27:51;;;;;;;7.60;6.80;;;;;;;26.37;59.22;96741.35;111707;1244;23809;-75
2023/09/18 08:30:20;;;;;;;7.70;7.00;;;;;;;26.09;59.63;96738.18;111705;1244;22609;-75
2023/09/18 08:32:48;;;;;;;;;;;;;;;26.17;60.46;96736.45;111739;1244;25524;-75
2023/09/18 08:35:16;;;;;;;7.60;6.90;;;;;;;26.19;59.80;96733.42;111729;1244;22494;-75
2023/09/18 08:37:47;;;;;;;8.30;6.90;;;;;;;26.27;60.38;96735.45;111691;1244;25529;-75
2023/09/18 08:40:16;;;;;;;8.20;7.20;;;;;;;26.52;60.52;96734.95;111723;1244;25327;-75
2023/09/18 08:42:50;;;;;;;8.70;7.30;;;;;;;26.85;61.17;96731.94;111709;1244;24967;-75
2023/09/18 08:45:31;;;;;;;8.10;7.20;;;;;;;27.03;60.47;96731.81;111751;1244;25383;-75
2023/09/18 08:48:02;;;;;;;9.20;7.50;;;;;;;26.72;59.51;96731.87;111654;1244;22554;-75
2023/09/18 08:50:33;;;;;;;10.10;7.80;;;;;;;26.33;59.17;96734.10;111684;1244;22481;-75
2023/09/18 08:53:01;;;;;;;9.90;7.90;;;;;;;26.04;59.86;96731.00;111658;1244;22532;-75
2023/09/18 08:55:30;;;;;;;9.60;8.00;;;;;;;25.92;60.29;96729.02;111593;1244;22492;-75
2023/09/18 08:58:00;;;;;;;8.50;7.60;;;;;;;26.01;60.46;96728.24;111712;1244;24197;-75
2023/09/18 09:00:28;;;;;;;11.30;8.00;;;;;;;26.12;60.67;96722.59;111724;1244;22541;-75
2023/09/18 09:02:56;;;;;;;8.40;7.60;;;;;;;26.30;60.76;96719.86;111737;1244;22606;-75
2023/09/18 09:05:25;;;;;;;10.40;7.90;;;;;;;26.41;60.48;96716.84;111735;1244;22491;-75
2023/09/18 09:07:54;;;;;;;8.60;7.70;;;;;;;26.50;60.90;96715.50;111675;1244;22722;-75
2023/09/18 09:10:21;;;;;;;;;;;;;;;26.65;60.41;96716.30;111773;1244;24233;-75
2023/09/18 09:12:58;;;;;;;9.30;8.00;;;;;;;26.72;59.85;96713.77;111713;1244;22663;-75
2023/09/18 09:15:29;;;;;;;10.30;9.10;;;;;;;26.79;59.52;96711.71;111761;1244;22522;-76
2023/09/18 09:18:05;;;;;;;9.50;8.50;;;;;;;26.76;59.87;96707.27;111665;1244;22542;-75
2023/09/18 09:20:35;;;;;;;9.90;8.80;;;;;;;26.83;59.20;96702.79;111741;1244;24178;-76
2023/09/18 09:23:06;;;;;;;9.20;8.30;;;;;;;26.74;58.62;96697.08;111688;1244;22971;-76
2023/09/18 09:25:34;;;;;;;10.00;9.00;;;;;;;26.72;58.39;96696.67;111689;1244;24762;-76
2023/09/18 09:28:04;;;;;;;10.00;8.90;;;;;;;26.48;57.98;96696.70;111628;1244;22465;-76
2023/09/18 09:30:33;;;;;;;10.50;9.50;;;;;;;26.21;58.67;96695.57;111657;1244;22623;-75
2023/09/18 09:33:04;;;;;;;11.70;9.40;;;;;;;26.19;59.37;96695.64;111665;1244;25147;-75
2023/09/18 09:35:34;;;;;;;10.60;9.50;;;;;;;26.21;59.45;96693.09;111660;1244;24342;-75
2023/09/18 09:38:09;;;;;;;10.90;9.90;;;;;;;26.16;59.80;96697.23;111589;1244;22505;-75
2023/09/18 09:40:41;;;;;;;14.40;9.70;;;;;;;26.01;59.35;96691.92;111704;1244;23948;-75
2023/09/18 09:43:13;;;;;;;12.10;9.60;;;;;;;25.75;58.68;96690.86;111663;1244;22551;-75
2023/09/18 09:45:42;;;;;;;10.70;9.70;;;;;;;25.70;59.25;96685.84;111709;1244;22525;-75
2023/09/18 09:48:11;;;;;;;10.60;9.50;;;;;;;25.80;59.46;96685.86;111595;1244;24651;-75
2023/09/18 09:50:46;;;;;;;10.90;9.80;;;;;;;25.70;59.17;96683.73;111474;1244;22489;-76
2023/09/18 09:53:17;;;;;;;11.30;10.20;;;;;;;25.88;60.27;96676.60;111601;1244;22498;-75
2023/09/18 09:55:55;;;;;;;10.00;8.60;;;;;;;26.13;60.32;96674.16;111677;1244;22476;-76
2023/09/18 09:58:32;;;;;;;9.30;8.40;;;;;;;26.22;59.00;96672.05;111777;1244;22530;-76
2023/09/18 10:01:10;;;;;;;9.30;8.40;;;;;;;26.14;58.55;96674.00;111624;1244;22482;-76
2023/09/18 10:03:40;;;;;;;10.00;8.90;;;;;;;26.06;58.35;96670.94;111691;1244;22505;-76
2023/09/18 10:06:12;;;;;;;10.70;9.50;;;;;;;26.04;58.09;96669.36;111697;1244;22488;-75
2023/09/18 10:08:43;;;;;;;9.70;8.80;;;;;;;26.12;58.11;96663.44;111631;1244;22528;-75
2023/09/18 10:11:17;;;;;;;9.60;8.50;;;;;;;26.07;57.30;96663.02;111673;1244;25223;-75
2023/09/18 10:13:53;;;;;;;10.20;9.30;;;;;;;25.93;57.26;96660.66;111716;1244;23818;-75
2023/09/18 10:16:25;;;;;;;9.80;8.80;;;;;;;26.00;57.41;96664.35;111687;1244;24131;-75
2023/09/18 10:19:04;;;;;;;10.00;9.00;;;;;;;25.99;57.08;96661.55;111667;1244;22502;-75
2023/09/18 10:21:41;;;;;;;9.70;8.70;;;;;;;25.98;57.11;96657.59;111647;1244;25305;-76
2023/09/18 10:24:19;;;;;;;9.60;8.70;;;;;;;26.12;57.41;96652.41;111612;1244;22511;-76
2023/09/18 10:26:55;;;;;;;9.20;8.30;;;;;;;26.31;58.14;96654.95;111422;1244;23276;-74
2023/09/18 10:29:24;;;;;;;9.00;8.10;;;;;;;25.21;59.80;96651.23;111488;1244;22496;-75
2023/09/18 10:31:54;;;;;;;9.60;8.40;;;;;;;23.52;62.29;96647.98;112813;1244;22509;-76
2023/09/18 10:34:24;;;;;;;9.30;8.30;;;;;;;22.97;64.72;96639.58;111648;1244;22516;-75
2023/09/18 10:36:53;;;;;;;9.40;8.50;;;;;;;22.77;65.61;96639.16;111648;1244;24201;-75
2023/09/18 10:39:23;;;;;;;;;;;;;;;22.64;66.23;96635.58;111679;1244;24252;-75
2023/09/18 10:41:56;;;;;;;10.30;9.30;;;;;;;22.64;67.23;96628.92;111678;1244;22516;-76
2023/09/18 10:44:26;;;;;;;9.50;8.50;;;;;;;22.66;67.56;96629.20;111691;1244;22548;-76
2023/09/18 10:46:56;;;;;;;9.50;8.60;;;;;;;22.61;66.48;96628.27;111687;1244;22493;-76
2023/09/18 10:49:25;;;;;;;10.00;8.80;;;;;;;22.69;66.27;96627.59;111647;1244;22554;-76
2023/09/18 10:51:56;;;;;;;10.80;9.60;;;;;;;22.90;66.95;96620.76;111687;1244;25355;-76
2023/09/18 10:54:26;;;;;;;10.30;9.30;;;;;;;23.15;67.12;96623.14;111701;1244;22502;-76
2023/09/18 10:56:56;;;;;;;10.70;9.40;;;;;;;23.35;67.38;96622.58;111701;1244;25279;-75
2023/09/18 10:59:29;;;;;;;10.10;9.10;;;;;;;23.61;67.28;96620.55;111655;1244;23792;-76
2023/09/18 11:02:02;;;;;;;9.90;9.00;;;;;;;23.85;66.24;96618.31;111665;1244;22511;-76
2023/09/18 11:04:32;;;;;;;9.90;8.90;;;;;;;24.14;66.44;96617.19;111750;1244;22503;-75
2023/09/18 11:07:05;;;;;;;11.00;9.60;;;;;;;24.49;65.86;96617.29;111724;1244;22515;-75
2023/09/18 11:09:45;;;;;;;10.70;8.70;;;;;;;24.72;65.67;96620.89;111755;1244;22528;-75
2023/09/18 11:12:17;;;;;;;9.60;8.70;;;;;;;24.94;64.81;96623.70;111703;1244;22583;-75
2023/09/18 11:14:49;;;;;;;10.60;8.80;;;;;;;24.94;63.46;96619.22;111762;1244;23927;-75
2023/09/18 11:17:35;;;;;;;9.60;8.70;;;;;;;25.00;63.58;96611.69;111723;1244;22664;-75
2023/09/18 11:20:12;;;;;;;9.60;8.70;;;;;;;25.06;63.42;96613.24;111717;1244;22501;-75
2023/09/18 11:22:47;;;;;;;10.00;9.00;;;;;;;25.07;62.81;96608.84;111720;1244;23209;-75
2023/09/18 11:25:37;;;;;;;9.10;8.10;;;;;;;25.05;62.82;96601.84;111693;1244;22574;-73
2023/09/18 11:28:07;;;;;;;9.30;8.40;;;;;;;25.16;62.70;96597.99;111584;1244;22494;-74
2023/09/18 11:30:36;;;;;;;8.90;8.00;;;;;;;25.29;62.91;96597.19;113152;1244;22499;-75
2023/09/18 11:33:08;;;;;;;8.60;7.80;;;;;;;25.41;62.06;96594.11;111676;1244;22569;-75
2023/09/18 11:35:51;;;;;;;9.00;8.10;;;;;;;25.44;61.50;96594.30;112124;1244;22511;-74
2023/09/18 11:38:20;;;;;;;9.20;8.30;;;;;;;25.31;60.39;96589.77;111338;1244;23774;-75